Bluefin — WDE9397 — position and weather

sailwx.info

Track history (hours):
 
Tides and Currents Weather Stations Pressure Air Temp Water Temp Dewpoint Dewpoint Depression Visibility Wind Speed Wind Dir Waves Ship Positions

Bluefin

Owner: Penn Maritime Inc., SEATTLE, WA. More information available from US FCC via Universal Licensing System and Coast Guard Vessel Documentation Center.

Last reported at 2015-May-04 00:34 UTC. Time now 2015-May-04 00:57 UTC.
Position N 40°39' W 074°03'.

Length 166 m; draft 7.5 m.

Type: Towing. MMSI: 367416750.

Date/timePositionNaut miles runAvg speedWind from/ knotsBaromVisibWave heightAir tempDewpointWater temp
2015-May-04 00:34N 40°39' W 074°03'0 0.0
2015-May-03 23:34N 40°39' W 074°03'0 0.0
2015-May-03 22:34N 40°39' W 074°03'2 2.2
2015-May-03 21:33N 40°39' W 074°06'5 5.4
2015-May-03 20:34N 40°37' W 074°12'4 3.7
2015-May-03 19:29N 40°33' W 074°13'2 1.7
2015-May-03 18:05N 40°31' W 074°15'0 0.0
2015-May-03 07:32N 40°31' W 074°15'0 0.0
2015-May-03 06:32N 40°31' W 074°15'1 0.1
2015-May-02 18:34N 40°33' W 074°15'6 6.2
2015-May-02 17:34N 40°38' W 074°12'7 6.9
2015-May-02 16:33N 40°37' W 074°03'8 8.4
2015-May-02 15:33N 40°30' W 073°56'10 9.7
2015-May-02 14:33N 40°28' W 073°44'10 9.8
2015-May-02 13:33N 40°28' W 073°31'10 9.9
2015-May-02 12:33N 40°29' W 073°18'10 9.9
2015-May-02 11:33N 40°29' W 073°05'1010.0
2015-May-02 10:33N 40°30' W 072°52'1111.1
2015-May-02 09:33N 40°30' W 072°37'1211.6
2015-May-02 08:33N 40°30' W 072°22'1111.4
2015-May-02 07:34N 40°31' W 072°07'1111.4
2015-May-02 06:34N 40°31' W 071°52'1111.2
2015-May-02 05:33N 40°31' W 071°37'1111.1
2015-May-02 04:34N 40°32' W 071°23'1211.0
2015-May-02 03:27N 40°32' W 071°07'4711.0
2015-May-01 23:09N 40°33' W 070°04'711.1
2015-May-01 22:29N 40°34' W 069°55'  
Track history (hours):
 
Tides and Currents Weather Stations Pressure Air Temp Water Temp Dewpoint Dewpoint Depression Visibility Wind Speed Wind Dir Waves Ship Positions

Bluefin

Owner: Penn Maritime Inc., SEATTLE, WA. More information available from US FCC via Universal Licensing System and Coast Guard Vessel Documentation Center.

Last reported at 2015-May-04 00:34 UTC. Time now 2015-May-04 00:57 UTC.
Position N 40°39' W 074°03'.

Length 166 m; draft 7.5 m.

Type: Towing. MMSI: 367416750.

Date/timePositionNaut miles runAvg speedWind from/ knotsBaromVisibWave heightAir tempDewpointWater temp
2015-May-04 00:34N 40°39' W 074°03'0 0.0
2015-May-03 23:34N 40°39' W 074°03'0 0.0
2015-May-03 22:34N 40°39' W 074°03'2 2.2
2015-May-03 21:33N 40°39' W 074°06'5 5.4
2015-May-03 20:34N 40°37' W 074°12'4 3.7
2015-May-03 19:29N 40°33' W 074°13'2 1.7
2015-May-03 18:05N 40°31' W 074°15'0 0.0
2015-May-03 07:32N 40°31' W 074°15'0 0.0
2015-May-03 06:32N 40°31' W 074°15'1 0.1
2015-May-02 18:34N 40°33' W 074°15'6 6.2
2015-May-02 17:34N 40°38' W 074°12'7 6.9
2015-May-02 16:33N 40°37' W 074°03'8 8.4
2015-May-02 15:33N 40°30' W 073°56'10 9.7
2015-May-02 14:33N 40°28' W 073°44'10 9.8
2015-May-02 13:33N 40°28' W 073°31'10 9.9
2015-May-02 12:33N 40°29' W 073°18'10 9.9
2015-May-02 11:33N 40°29' W 073°05'1010.0
2015-May-02 10:33N 40°30' W 072°52'1111.1
2015-May-02 09:33N 40°30' W 072°37'1211.6
2015-May-02 08:33N 40°30' W 072°22'1111.4
2015-May-02 07:34N 40°31' W 072°07'1111.4
2015-May-02 06:34N 40°31' W 071°52'1111.2
2015-May-02 05:33N 40°31' W 071°37'1111.1
2015-May-02 04:34N 40°32' W 071°23'1211.0
2015-May-02 03:27N 40°32' W 071°07'4711.0
2015-May-01 23:09N 40°33' W 070°04'711.1
2015-May-01 22:29N 40°34' W 069°55'  

Dump ship's entire track history